Rechercher aéroport 
image banner adimage banner adimage banner ad
image banner ad

KBLH - Blythe

Situé à Blythe, United States

ICAO - BLH, IATA - BLH

Données fournies par Airmate  

Information générale

Coordonnées: N33°37'9" W114°43'1"
Élévation : 400 feet MSL.
Variation magnétique : 13° East
Voir autres Aéroports à California

Données opérationnelles

Special qualification required
Heure actuelle UTC:
Heure actuelle locale:
Météo
METAR: KBLH 251152Z AUTO 11003KT 10SM SCT100 29/19 A2988 RMK AO2 SLP110 70005 T02940194 10317 20289 55005
TAF: KBLH 251120Z 2512/2612 17009KT P6SM SCT080 BKN100 OVC150 FM251700 16013KT P6SM VCSH SCT080 BKN120 FM252300 17010KT P6SM SCT080 BKN120
Voir NOTAMs / SUP AIP / TFR affectant cet aéroport [VIEW]
Fréquences de communication: [VIEW]

Pistes:

Identifiant RWYQFULongueur (ft)Largeur (ft)SurfaceLDA (ft)
0890°6543150ASPH
26270°6543150ASPH
17180°5800100ASPH
355800100ASPH

Coordonnées de l'aéroport

Adresse: Blythe United States

Vue satellite de KBLH